Terminal Aerodrome Forecast
Issued by NWS

Current Version | Previous Version | Text Only | Print | Product List | Glossary Off
Versions: 1 2 3 4 5 6 7 8 9 10 11 12 13 14 15 16 17 18 19 20 21 22 23 24 25

384
FTUS41 KRLX 250910 AAA
TAFCKB
TAF AMD
KCKB 250910Z 2509/2606 18003KT P6SM SCT040 BKN070
      TEMPO 2509/2512 5SM SHRA BKN040
     FM251600 21007KT P6SM BKN050
     FM251800 22008KT P6SM SCT050
     FM260300 21002KT P6SM SCT070=

USA.gov is the U.S. government's official web portal to all federal, state and local government web resources and services.